createdAt,value
2023-01-09T00:02:22.221Z,10.31
2023-01-09T00:04:48.500Z,10.34
2023-01-09T00:07:14.769Z,10.44
2023-01-09T00:09:41.017Z,10.40
2023-01-09T00:12:07.257Z,10.44
2023-01-09T00:14:33.498Z,10.36
2023-01-09T00:16:59.773Z,10.43
2023-01-09T00:19:26.063Z,10.38
2023-01-09T00:21:52.345Z,10.33
2023-01-09T00:24:18.609Z,10.26
2023-01-09T00:26:44.853Z,10.11
2023-01-09T00:29:11.095Z,9.75
2023-01-09T00:31:37.336Z,9.64
2023-01-09T00:34:03.615Z,9.58
2023-01-09T00:36:29.888Z,9.51
2023-01-09T00:38:56.157Z,9.44
2023-01-09T00:41:22.401Z,9.59
2023-01-09T00:43:48.655Z,9.41
2023-01-09T00:46:14.983Z,9.39
2023-01-09T00:48:41.271Z,9.18
2023-01-09T00:51:07.517Z,8.99
2023-01-09T00:53:33.758Z,8.54
2023-01-09T00:56:00.023Z,8.13
2023-01-09T00:58:26.278Z,7.85
2023-01-09T01:00:52.602Z,7.40
2023-01-09T01:03:18.873Z,7.09
2023-01-09T01:05:45.140Z,7.03
2023-01-09T01:08:11.548Z,6.90
2023-01-09T01:10:37.917Z,7.00
2023-01-09T01:13:04.167Z,6.90
2023-01-09T01:15:30.433Z,6.91
2023-01-09T01:17:56.702Z,7.12
2023-01-09T01:20:22.966Z,7.11
2023-01-09T01:22:49.239Z,7.02
2023-01-09T01:25:15.493Z,7.17
2023-01-09T01:27:41.758Z,7.19
2023-01-09T01:30:08.057Z,7.23
2023-01-09T01:32:34.310Z,7.37
2023-01-09T01:35:00.576Z,7.51
2023-01-09T01:37:26.825Z,7.68
2023-01-09T01:39:53.068Z,7.64
2023-01-09T01:42:19.316Z,7.75
2023-01-09T01:44:45.550Z,7.69
2023-01-09T01:47:11.781Z,7.75
2023-01-09T01:49:38.036Z,7.90
2023-01-09T01:52:04.283Z,8.15
2023-01-09T01:54:30.523Z,8.33
2023-01-09T01:56:56.755Z,8.36
2023-01-09T01:59:23.017Z,8.29
2023-01-09T02:01:49.360Z,8.23
2023-01-09T02:04:15.673Z,8.11
2023-01-09T02:06:41.910Z,8.07
2023-01-09T02:09:08.157Z,7.83
2023-01-09T02:11:34.397Z,7.91
2023-01-09T02:14:00.666Z,7.66
2023-01-09T02:16:26.917Z,7.43
2023-01-09T02:18:53.291Z,7.51
2023-01-09T02:21:19.533Z,7.38
2023-01-09T02:23:45.785Z,7.53
2023-01-09T02:26:12.075Z,7.50
2023-01-09T02:28:38.335Z,7.69
2023-01-09T02:31:04.579Z,7.82
2023-01-09T02:33:30.941Z,7.95
2023-01-09T02:35:57.177Z,8.09
2023-01-09T02:38:23.446Z,8.16
2023-01-09T02:40:49.732Z,8.24
2023-01-09T02:43:16.002Z,8.11
2023-01-09T02:45:42.287Z,7.90
2023-01-09T02:48:08.563Z,7.48
2023-01-09T02:50:34.834Z,7.23
2023-01-09T02:53:01.117Z,7.06
2023-01-09T02:55:27.372Z,7.00
2023-01-09T02:57:53.610Z,7.10
2023-01-09T03:00:19.867Z,7.17
2023-01-09T03:02:46.143Z,7.44
2023-01-09T03:05:12.437Z,7.59
2023-01-09T03:07:38.674Z,7.59
2023-01-09T03:10:04.927Z,7.55
2023-01-09T03:12:31.194Z,7.43
2023-01-09T03:14:57.454Z,7.24
2023-01-09T03:17:23.719Z,7.17
2023-01-09T03:19:49.987Z,7.06
2023-01-09T03:22:16.240Z,7.08
2023-01-09T03:24:42.477Z,6.89
2023-01-09T03:27:08.728Z,6.74
2023-01-09T03:29:35.108Z,6.75
2023-01-09T03:32:01.337Z,6.89
2023-01-09T03:34:27.566Z,6.79
2023-01-09T03:36:53.807Z,6.94
2023-01-09T03:39:20.037Z,6.87
2023-01-09T03:41:46.301Z,6.97
2023-01-09T03:44:12.551Z,6.57
2023-01-09T03:46:38.805Z,6.74
2023-01-09T03:49:05.041Z,6.86
2023-01-09T03:51:31.303Z,6.93
2023-01-09T03:53:57.588Z,6.99
2023-01-09T03:56:23.820Z,6.87
2023-01-09T03:58:50.108Z,6.67
2023-01-09T04:01:16.470Z,6.82
2023-01-09T04:03:42.841Z,6.85
2023-01-09T04:06:09.108Z,6.93
2023-01-09T04:08:35.365Z,7.08
2023-01-09T04:11:01.618Z,7.01
2023-01-09T04:13:27.884Z,6.85
2023-01-09T04:15:54.154Z,6.70
2023-01-09T04:18:20.414Z,6.94
2023-01-09T04:20:46.671Z,7.02
2023-01-09T04:23:12.930Z,7.13
2023-01-09T04:25:39.165Z,7.12
2023-01-09T04:28:05.423Z,7.16
2023-01-09T04:30:31.724Z,7.12
2023-01-09T04:32:58.077Z,6.84
2023-01-09T04:35:24.332Z,6.71
2023-01-09T04:37:50.600Z,6.77
2023-01-09T04:40:16.857Z,6.69
2023-01-09T04:42:43.106Z,6.44
2023-01-09T04:45:09.399Z,6.74
2023-01-09T04:47:35.639Z,6.62
2023-01-09T04:50:01.998Z,6.65
2023-01-09T04:52:28.253Z,6.81
2023-01-09T04:54:54.520Z,6.95
2023-01-09T04:57:20.781Z,6.83
2023-01-09T04:59:47.036Z,6.84
2023-01-09T05:02:13.429Z,6.70
2023-01-09T05:04:39.826Z,6.70
2023-01-09T05:07:06.160Z,6.75
2023-01-09T05:09:32.421Z,6.70
2023-01-09T05:12:00.056Z,6.35
2023-01-09T05:14:27.336Z,6.39
2023-01-09T05:16:53.641Z,6.54
2023-01-09T05:19:19.891Z,6.62
2023-01-09T05:21:46.187Z,6.62
2023-01-09T05:24:12.437Z,6.65
2023-01-09T05:26:38.688Z,6.73
2023-01-09T05:29:04.945Z,6.81
2023-01-09T05:31:31.204Z,6.81
2023-01-09T05:33:57.462Z,6.96
2023-01-09T05:36:23.725Z,7.09
2023-01-09T05:38:49.961Z,7.17
2023-01-09T05:41:16.204Z,7.18
2023-01-09T05:43:42.475Z,7.13
2023-01-09T05:46:08.798Z,7.20
2023-01-09T05:48:35.062Z,7.05
2023-01-09T05:51:01.303Z,6.89
2023-01-09T05:53:27.550Z,6.91
2023-01-09T05:55:53.805Z,6.86
2023-01-09T05:58:20.070Z,6.91
2023-01-09T06:00:46.397Z,6.90
2023-01-09T06:03:12.687Z,6.93
2023-01-09T06:05:38.931Z,6.94
2023-01-09T06:08:05.181Z,6.74
2023-01-09T06:10:31.436Z,6.61
2023-01-09T06:12:57.684Z,6.66
2023-01-09T06:15:23.913Z,6.52
2023-01-09T06:17:50.159Z,6.59
2023-01-09T06:20:16.429Z,6.43
2023-01-09T06:22:42.669Z,6.37
2023-01-09T06:25:08.904Z,6.35
2023-01-09T06:27:35.148Z,6.34
2023-01-09T06:30:01.408Z,6.41
2023-01-09T06:32:27.658Z,6.36
2023-01-09T06:34:53.909Z,6.38
2023-01-09T06:37:20.154Z,6.47
2023-01-09T06:39:46.409Z,6.63
2023-01-09T06:42:12.666Z,6.63
2023-01-09T06:44:39.017Z,6.70
2023-01-09T06:47:05.289Z,6.77
2023-01-09T06:49:31.536Z,6.85
2023-01-09T06:51:57.788Z,6.85
2023-01-09T06:54:24.030Z,6.94
2023-01-09T06:56:50.276Z,6.95
2023-01-09T06:59:16.535Z,7.07
2023-01-09T07:01:42.887Z,7.15
2023-01-09T07:04:09.266Z,7.05
2023-01-09T07:06:35.501Z,7.10
2023-01-09T07:09:01.739Z,7.04
2023-01-09T07:11:27.989Z,7.03
2023-01-09T07:13:54.248Z,7.05
2023-01-09T07:16:20.644Z,7.00
2023-01-09T07:18:46.933Z,7.15
2023-01-09T07:21:13.191Z,7.30
2023-01-09T07:23:39.428Z,7.26
2023-01-09T07:26:05.690Z,7.19
2023-01-09T07:28:31.928Z,7.20
2023-01-09T07:30:58.195Z,7.03
2023-01-09T07:33:24.476Z,7.10
2023-01-09T07:35:50.738Z,7.01
2023-01-09T07:38:16.988Z,6.88
2023-01-09T07:40:43.259Z,6.67
2023-01-09T07:43:09.623Z,6.64
2023-01-09T07:45:35.877Z,6.47
2023-01-09T07:48:02.146Z,6.51
2023-01-09T07:50:28.397Z,6.31
2023-01-09T07:52:54.625Z,6.39
2023-01-09T07:55:20.872Z,6.41
2023-01-09T07:57:47.120Z,6.28
2023-01-09T08:00:13.367Z,6.23
2023-01-09T08:02:39.637Z,6.28
2023-01-09T08:05:05.921Z,6.28
2023-01-09T08:07:32.175Z,6.36
2023-01-09T08:09:58.408Z,6.43
2023-01-09T08:12:24.644Z,6.44
2023-01-09T08:14:50.892Z,6.61
2023-01-09T08:17:17.132Z,6.64
2023-01-09T08:19:43.364Z,6.76
2023-01-09T08:22:09.616Z,6.73
2023-01-09T08:24:35.853Z,6.70
2023-01-09T08:27:02.085Z,6.59
2023-01-09T08:29:28.348Z,6.63
2023-01-09T08:31:54.583Z,6.62
2023-01-09T08:34:20.813Z,6.57
2023-01-09T08:36:47.059Z,6.64
2023-01-09T08:39:13.317Z,6.53
2023-01-09T08:41:39.564Z,6.57
2023-01-09T08:44:05.807Z,6.63
2023-01-09T08:46:34.706Z,6.41
2023-01-09T08:49:01.035Z,6.54
2023-01-09T08:51:27.286Z,6.60
2023-01-09T08:53:53.525Z,6.63
2023-01-09T08:56:19.776Z,6.70
2023-01-09T08:58:46.020Z,6.80
2023-01-09T09:01:12.329Z,6.81
2023-01-09T09:03:38.613Z,6.95
2023-01-09T09:06:04.890Z,6.96
2023-01-09T09:08:32.144Z,6.96
2023-01-09T09:10:58.425Z,6.85
2023-01-09T09:13:24.687Z,6.88
2023-01-09T09:15:50.985Z,6.84
2023-01-09T09:18:17.270Z,6.89
2023-01-09T09:20:43.519Z,7.02
2023-01-09T09:23:09.763Z,6.86
2023-01-09T09:25:36.013Z,6.63
2023-01-09T09:28:02.320Z,6.54
2023-01-09T09:30:28.570Z,6.51
2023-01-09T09:32:54.818Z,6.43
2023-01-09T09:35:21.128Z,6.47
2023-01-09T09:37:47.389Z,6.30
2023-01-09T09:40:18.672Z,5.89
2023-01-09T09:42:45.319Z,6.02
2023-01-09T09:45:11.549Z,6.29
2023-01-09T09:47:37.809Z,6.24
2023-01-09T09:50:04.080Z,5.95
2023-01-09T09:52:30.324Z,5.93
2023-01-09T09:54:56.676Z,5.84
2023-01-09T09:57:22.904Z,5.78
2023-01-09T09:59:49.172Z,5.93
2023-01-09T10:02:15.423Z,5.94
2023-01-09T10:04:41.683Z,5.83
2023-01-09T10:07:07.933Z,5.98
2023-01-09T10:09:34.171Z,6.04
2023-01-09T10:12:00.438Z,5.94
2023-01-09T10:14:26.678Z,5.64
2023-01-09T10:16:52.939Z,5.73
2023-01-09T10:19:19.195Z,5.71
2023-01-09T10:21:45.440Z,5.54
2023-01-09T10:24:11.691Z,5.68
2023-01-09T10:26:37.936Z,5.71
2023-01-09T10:29:04.203Z,5.66
2023-01-09T10:31:30.480Z,5.66
2023-01-09T10:33:56.730Z,5.88
2023-01-09T10:36:22.971Z,5.99
2023-01-09T10:38:49.206Z,6.07
2023-01-09T10:41:15.462Z,6.04
2023-01-09T10:43:41.713Z,6.02
2023-01-09T10:46:08.022Z,6.11
2023-01-09T10:48:34.279Z,5.98
2023-01-09T10:51:00.534Z,6.04
2023-01-09T10:53:26.801Z,6.16
2023-01-09T10:55:53.075Z,6.27
2023-01-09T10:58:19.336Z,6.22
2023-01-09T11:00:45.605Z,6.35
2023-01-09T11:03:11.897Z,6.41
2023-01-09T11:05:38.171Z,6.32
2023-01-09T11:08:04.456Z,6.22
2023-01-09T11:10:30.720Z,6.27
2023-01-09T11:12:56.969Z,6.22
2023-01-09T11:15:23.206Z,5.93
2023-01-09T11:17:49.447Z,5.99
2023-01-09T11:20:15.703Z,6.00
2023-01-09T11:22:41.938Z,6.09
2023-01-09T11:25:08.172Z,6.13
2023-01-09T11:27:34.435Z,6.20
2023-01-09T11:30:00.710Z,6.31
2023-01-09T11:32:26.995Z,6.52
2023-01-09T11:34:53.256Z,6.72
2023-01-09T11:37:19.513Z,6.68
2023-01-09T11:39:45.750Z,6.61
2023-01-09T11:42:12.014Z,6.60
2023-01-09T11:44:38.271Z,6.67
2023-01-09T11:47:04.534Z,6.66
2023-01-09T11:49:30.791Z,6.78
2023-01-09T11:51:57.063Z,6.77
2023-01-09T11:54:23.305Z,6.80
2023-01-09T11:56:49.567Z,6.90
2023-01-09T11:59:15.819Z,7.01
2023-01-09T12:01:42.072Z,7.17
2023-01-09T12:04:08.356Z,7.13
2023-01-09T12:06:34.629Z,7.02
2023-01-09T12:09:00.874Z,6.95
2023-01-09T12:11:27.124Z,7.04
2023-01-09T12:13:53.461Z,7.05
2023-01-09T12:16:19.719Z,7.03
2023-01-09T12:18:45.971Z,6.99
2023-01-09T12:21:12.220Z,6.81
2023-01-09T12:23:38.472Z,6.63
2023-01-09T12:26:04.735Z,6.66
2023-01-09T12:28:30.980Z,6.56
2023-01-09T12:30:57.234Z,6.56
2023-01-09T12:33:23.524Z,6.64
2023-01-09T12:35:49.781Z,6.37
2023-01-09T12:38:16.032Z,6.28
2023-01-09T12:40:42.285Z,6.03
2023-01-09T12:43:08.559Z,6.08
2023-01-09T12:45:34.856Z,5.84
2023-01-09T12:48:01.101Z,5.82
2023-01-09T12:50:27.362Z,5.61
2023-01-09T12:52:53.620Z,5.47
2023-01-09T12:55:19.863Z,5.48
2023-01-09T12:57:46.141Z,5.61
2023-01-09T13:00:12.379Z,5.82
2023-01-09T13:02:38.619Z,5.80
2023-01-09T13:05:04.849Z,5.48
2023-01-09T13:07:31.213Z,5.42
2023-01-09T13:09:57.461Z,5.33
2023-01-09T13:12:23.710Z,4.69
2023-01-09T13:14:49.946Z,4.47
2023-01-09T13:17:16.217Z,4.65
2023-01-09T13:19:42.485Z,4.83
2023-01-09T13:22:08.726Z,4.95
2023-01-09T13:24:34.969Z,4.96
2023-01-09T13:27:01.203Z,5.08
2023-01-09T13:29:27.433Z,4.98
2023-01-09T13:31:53.731Z,4.93
2023-01-09T13:34:22.415Z,4.89
2023-01-09T13:36:49.039Z,4.93
2023-01-09T13:39:15.296Z,4.95
2023-01-09T13:41:41.801Z,4.87
2023-01-09T13:44:08.913Z,4.88
2023-01-09T13:46:35.188Z,4.80
2023-01-09T13:49:01.456Z,4.85
2023-01-09T13:51:27.715Z,4.98
2023-01-09T13:53:53.945Z,5.10
2023-01-09T13:56:22.796Z,5.12
2023-01-09T13:58:49.976Z,5.30
2023-01-09T14:01:16.231Z,5.38
2023-01-09T14:03:42.605Z,5.44
2023-01-09T14:06:08.860Z,5.49
2023-01-09T14:08:35.140Z,5.52
2023-01-09T14:11:01.419Z,5.45
2023-01-09T14:13:27.696Z,5.47
2023-01-09T14:15:53.949Z,5.45
2023-01-09T14:18:20.204Z,5.55
2023-01-09T14:20:46.477Z,5.59
2023-01-09T14:23:31.294Z,5.57
2023-01-09T14:25:58.979Z,5.70
2023-01-09T14:28:25.229Z,5.78
2023-01-09T14:30:51.464Z,5.71
2023-01-09T14:33:17.719Z,5.84
2023-01-09T14:35:43.989Z,5.74
2023-01-09T14:38:10.246Z,5.83
2023-01-09T14:40:36.492Z,5.80
2023-01-09T14:43:02.750Z,5.89
2023-01-09T14:45:29.138Z,5.93
2023-01-09T14:47:55.457Z,5.89
2023-01-09T14:50:21.712Z,5.89
2023-01-09T14:52:47.969Z,5.92
2023-01-09T14:55:14.204Z,5.91
2023-01-09T14:57:40.455Z,5.84
2023-01-09T15:00:06.686Z,6.02
2023-01-09T15:02:33.001Z,5.91
2023-01-09T15:04:59.274Z,5.79
2023-01-09T15:07:25.537Z,5.83
2023-01-09T15:09:51.790Z,5.74
2023-01-09T15:12:18.048Z,5.83
2023-01-09T15:14:44.285Z,5.80
2023-01-09T15:17:10.568Z,5.94
2023-01-09T15:19:36.835Z,5.85
2023-01-09T15:22:03.092Z,5.74
2023-01-09T15:24:29.332Z,5.82
2023-01-09T15:26:55.605Z,5.73
2023-01-09T15:29:21.847Z,5.78
2023-01-09T15:31:48.124Z,5.87
2023-01-09T15:34:14.393Z,5.35
2023-01-09T15:36:40.650Z,5.19
2023-01-09T15:39:06.923Z,5.28
2023-01-09T15:41:33.178Z,5.31
2023-01-09T15:43:59.416Z,5.39
2023-01-09T15:46:25.666Z,5.38
2023-01-09T15:48:51.926Z,5.43
2023-01-09T15:51:18.188Z,5.46
2023-01-09T15:53:44.453Z,5.55
2023-01-09T15:56:10.709Z,5.56
2023-01-09T15:58:36.973Z,5.62
2023-01-09T16:01:03.273Z,5.37
2023-01-09T16:03:29.560Z,5.50
2023-01-09T16:05:55.816Z,5.43
2023-01-09T16:08:22.073Z,5.48
2023-01-09T16:10:48.329Z,5.58
2023-01-09T16:13:14.564Z,5.60
2023-01-09T16:15:40.836Z,5.76
2023-01-09T16:18:07.095Z,5.65
2023-01-09T16:20:33.339Z,5.74
2023-01-09T16:23:01.292Z,5.78
2023-01-09T16:25:28.093Z,5.78
2023-01-09T16:27:54.327Z,5.83
2023-01-09T16:30:20.577Z,6.03
2023-01-09T16:32:46.834Z,5.97
2023-01-09T16:35:13.068Z,5.96
2023-01-09T16:37:39.304Z,5.98
2023-01-09T16:40:05.583Z,6.08
2023-01-09T16:42:31.928Z,5.99
2023-01-09T16:44:58.165Z,5.68
2023-01-09T16:47:24.409Z,5.52
2023-01-09T16:49:50.746Z,5.57
2023-01-09T16:52:17.004Z,5.51
2023-01-09T16:54:43.276Z,5.69
2023-01-09T16:57:09.533Z,5.66
2023-01-09T16:59:35.767Z,5.56
2023-01-09T17:02:02.030Z,5.68
2023-01-09T17:04:28.278Z,5.67
2023-01-09T17:06:54.532Z,5.81
2023-01-09T17:09:20.769Z,5.88
2023-01-09T17:11:47.009Z,5.93
2023-01-09T17:14:13.271Z,5.92
2023-01-09T17:16:39.523Z,5.76
2023-01-09T17:19:05.786Z,5.62
2023-01-09T17:21:32.057Z,5.74
2023-01-09T17:23:58.351Z,5.70
2023-01-09T17:26:24.581Z,5.83
2023-01-09T17:28:50.867Z,5.81
2023-01-09T17:31:17.176Z,5.90
2023-01-09T17:33:43.444Z,5.87
2023-01-09T17:36:09.705Z,5.87
2023-01-09T17:38:35.959Z,5.55
2023-01-09T17:41:02.225Z,5.57
2023-01-09T17:43:28.582Z,5.48
2023-01-09T17:45:54.906Z,5.34
2023-01-09T17:48:21.295Z,5.22
2023-01-09T17:50:47.568Z,5.14
2023-01-09T17:53:13.847Z,5.17
2023-01-09T17:55:40.085Z,5.33
2023-01-09T17:58:06.326Z,5.50
2023-01-09T18:00:32.569Z,5.67
2023-01-09T18:02:58.834Z,5.70
2023-01-09T18:05:25.087Z,5.64
2023-01-09T18:07:51.327Z,5.74
2023-01-09T18:10:17.576Z,5.82
2023-01-09T18:12:43.828Z,5.87
2023-01-09T18:15:10.104Z,5.84
2023-01-09T18:17:36.364Z,5.94
2023-01-09T18:20:02.610Z,5.83
2023-01-09T18:22:28.866Z,5.97
2023-01-09T18:24:55.113Z,5.95
2023-01-09T18:27:21.343Z,6.06
2023-01-09T18:29:47.596Z,5.95
2023-01-09T18:32:13.856Z,5.93
2023-01-09T18:34:40.111Z,5.68
2023-01-09T18:37:06.395Z,5.72
2023-01-09T18:39:32.722Z,5.60
2023-01-09T18:41:58.989Z,5.57
2023-01-09T18:44:25.224Z,5.63
2023-01-09T18:46:51.466Z,5.81
2023-01-09T18:49:17.713Z,5.92
2023-01-09T18:51:43.964Z,5.71
2023-01-09T18:54:10.213Z,5.78
2023-01-09T18:56:36.468Z,5.80
2023-01-09T18:59:02.744Z,5.47
2023-01-09T19:01:29.020Z,5.44
2023-01-09T19:03:55.360Z,5.40
2023-01-09T19:06:21.631Z,5.40
2023-01-09T19:08:47.871Z,5.43
2023-01-09T19:11:14.124Z,5.32
2023-01-09T19:13:40.360Z,5.56
2023-01-09T19:16:06.714Z,5.44
2023-01-09T19:18:32.998Z,5.45
2023-01-09T19:20:59.243Z,5.43
2023-01-09T19:23:25.486Z,5.52
2023-01-09T19:25:51.736Z,5.54
2023-01-09T19:28:18.004Z,5.48
2023-01-09T19:30:44.263Z,5.45
2023-01-09T19:33:10.508Z,5.54
2023-01-09T19:35:36.742Z,5.54
2023-01-09T19:38:03.208Z,5.63
2023-01-09T19:40:29.457Z,5.69
2023-01-09T19:42:55.706Z,5.75
2023-01-09T19:45:22.027Z,5.76
2023-01-09T19:47:48.336Z,5.79
2023-01-09T19:50:14.702Z,5.77
2023-01-09T19:52:40.949Z,5.92
2023-01-09T19:55:07.206Z,6.04
2023-01-09T19:57:33.469Z,5.96
2023-01-09T19:59:59.741Z,5.95
2023-01-09T20:02:25.985Z,5.96
2023-01-09T20:04:52.242Z,5.77
2023-01-09T20:07:18.494Z,5.91
2023-01-09T20:09:44.734Z,6.02
2023-01-09T20:12:10.995Z,5.99
2023-01-09T20:14:37.261Z,6.00
2023-01-09T20:17:03.524Z,5.89
2023-01-09T20:19:29.770Z,5.85
2023-01-09T20:21:56.006Z,5.44
2023-01-09T20:24:22.269Z,5.35
2023-01-09T20:26:48.511Z,5.31
2023-01-09T20:29:14.779Z,5.28
2023-01-09T20:31:41.114Z,5.34
2023-01-09T20:34:07.414Z,5.41
2023-01-09T20:36:33.691Z,5.55
2023-01-09T20:39:01.041Z,5.67
2023-01-09T20:41:27.289Z,5.58
2023-01-09T20:43:55.593Z,5.61
2023-01-09T20:46:22.128Z,5.69
2023-01-09T20:48:48.380Z,5.61
2023-01-09T20:51:14.657Z,5.60
2023-01-09T20:53:40.890Z,5.52
2023-01-09T20:56:07.159Z,5.62
2023-01-09T20:58:33.456Z,5.60
2023-01-09T21:00:59.728Z,5.57
2023-01-09T21:03:25.984Z,5.59
2023-01-09T21:05:52.226Z,5.59
2023-01-09T21:08:18.482Z,5.42
2023-01-09T21:10:44.733Z,5.09
2023-01-09T21:13:10.986Z,5.15
2023-01-09T21:15:37.220Z,5.06
2023-01-09T21:18:03.473Z,5.17
2023-01-09T21:20:29.744Z,5.17
2023-01-09T21:22:55.982Z,5.07
2023-01-09T21:25:22.234Z,5.12
2023-01-09T21:27:48.491Z,5.29
2023-01-09T21:30:14.756Z,5.47
2023-01-09T21:32:41.011Z,5.25
2023-01-09T21:35:07.273Z,5.32
2023-01-09T21:37:33.521Z,5.32
2023-01-09T21:39:59.752Z,5.42
2023-01-09T21:42:25.995Z,5.46
2023-01-09T21:44:52.239Z,5.46
2023-01-09T21:47:18.494Z,5.56
2023-01-09T21:49:44.735Z,5.60
2023-01-09T21:52:10.986Z,5.66
2023-01-09T21:54:37.272Z,5.58
2023-01-09T21:57:03.547Z,5.56
2023-01-09T21:59:29.806Z,5.43
2023-01-09T22:01:56.055Z,5.46
2023-01-09T22:04:22.358Z,5.35
2023-01-09T22:06:48.681Z,5.30
2023-01-09T22:09:14.940Z,5.29
2023-01-09T22:11:41.206Z,5.45
2023-01-09T22:14:07.476Z,5.41
2023-01-09T22:16:33.730Z,5.53
2023-01-09T22:19:00.027Z,5.51
2023-01-09T22:21:26.292Z,5.62
2023-01-09T22:23:52.565Z,5.70
2023-01-09T22:26:18.808Z,5.72
2023-01-09T22:28:45.162Z,5.71
2023-01-09T22:31:11.445Z,5.62
2023-01-09T22:33:37.677Z,5.53
2023-01-09T22:36:03.936Z,5.67
2023-01-09T22:38:30.172Z,5.74
2023-01-09T22:40:56.430Z,5.82
2023-01-09T22:43:22.672Z,5.56
2023-01-09T22:45:48.933Z,5.58
2023-01-09T22:48:15.206Z,5.44
2023-01-09T22:50:41.447Z,5.42
2023-01-09T22:53:07.681Z,5.34
2023-01-09T22:55:33.965Z,5.26
2023-01-09T22:58:00.236Z,5.27
2023-01-09T23:00:26.477Z,5.12
2023-01-09T23:02:52.872Z,5.17
2023-01-09T23:05:19.174Z,4.96
2023-01-09T23:07:45.432Z,4.77
2023-01-09T23:10:11.696Z,4.96
2023-01-09T23:12:37.954Z,5.04
2023-01-09T23:15:04.189Z,5.12
2023-01-09T23:17:30.456Z,5.28
2023-01-09T23:19:56.738Z,5.13
2023-01-09T23:22:23.003Z,5.24
2023-01-09T23:24:49.259Z,5.13
2023-01-09T23:27:15.532Z,5.09
2023-01-09T23:29:41.779Z,4.96
2023-01-09T23:32:08.073Z,5.11
2023-01-09T23:34:34.336Z,5.27
2023-01-09T23:37:00.648Z,5.09
2023-01-09T23:39:26.979Z,5.22
2023-01-09T23:41:53.257Z,5.15
2023-01-09T23:44:19.508Z,5.17
2023-01-09T23:46:45.740Z,5.18
2023-01-09T23:49:11.993Z,5.37
2023-01-09T23:51:38.247Z,5.49
2023-01-09T23:54:04.508Z,5.49
2023-01-09T23:56:30.748Z,5.42
2023-01-09T23:58:57.020Z,5.23
